sensor_id;sensor_type;location;lat;lon;timestamp;temperature;humidity
45843;DHT22;31563;51.744;8.252;2023-02-18T00:01:17;19.80;53.00
45843;DHT22;31563;51.744;8.252;2023-02-18T00:03:47;19.80;53.00
45843;DHT22;31563;51.744;8.252;2023-02-18T00:06:16;19.80;53.00
45843;DHT22;31563;51.744;8.252;2023-02-18T00:08:45;19.90;53.10
45843;DHT22;31563;51.744;8.252;2023-02-18T00:11:14;19.80;53.30
45843;DHT22;31563;51.744;8.252;2023-02-18T00:13:42;19.80;53.00
45843;DHT22;31563;51.744;8.252;2023-02-18T00:16:11;19.80;52.80
45843;DHT22;31563;51.744;8.252;2023-02-18T00:18:41;19.80;52.80
45843;DHT22;31563;51.744;8.252;2023-02-18T00:21:09;19.80;52.70
45843;DHT22;31563;51.744;8.252;2023-02-18T00:23:37;19.70;52.80
45843;DHT22;31563;51.744;8.252;2023-02-18T00:26:09;19.70;52.80
45843;DHT22;31563;51.744;8.252;2023-02-18T00:28:37;19.70;52.70
45843;DHT22;31563;51.744;8.252;2023-02-18T00:31:06;19.70;52.80
45843;DHT22;31563;51.744;8.252;2023-02-18T00:33:35;19.70;52.70
45843;DHT22;31563;51.744;8.252;2023-02-18T00:36:07;19.60;52.70
45843;DHT22;31563;51.744;8.252;2023-02-18T00:38:36;19.60;52.90
45843;DHT22;31563;51.744;8.252;2023-02-18T00:41:05;19.60;52.90
45843;DHT22;31563;51.744;8.252;2023-02-18T00:43:33;19.70;52.80
45843;DHT22;31563;51.744;8.252;2023-02-18T00:46:01;19.60;52.80
45843;DHT22;31563;51.744;8.252;2023-02-18T00:48:29;19.60;52.70
45843;DHT22;31563;51.744;8.252;2023-02-18T00:50:57;19.60;52.70
45843;DHT22;31563;51.744;8.252;2023-02-18T00:53:27;19.70;52.80
45843;DHT22;31563;51.744;8.252;2023-02-18T00:55:56;19.60;52.70
45843;DHT22;31563;51.744;8.252;2023-02-18T00:58:24;19.60;52.60
45843;DHT22;31563;51.744;8.252;2023-02-18T01:00:53;19.60;52.60
45843;DHT22;31563;51.744;8.252;2023-02-18T01:03:21;19.70;52.50
45843;DHT22;31563;51.744;8.252;2023-02-18T01:05:51;19.70;52.50
45843;DHT22;31563;51.744;8.252;2023-02-18T01:08:20;19.60;52.50
45843;DHT22;31563;51.744;8.252;2023-02-18T01:10:54;19.60;52.60
45843;DHT22;31563;51.744;8.252;2023-02-18T01:13:23;19.60;52.50
45843;DHT22;31563;51.744;8.252;2023-02-18T01:15:51;19.60;52.50
45843;DHT22;31563;51.744;8.252;2023-02-18T01:18:20;19.60;52.50
45843;DHT22;31563;51.744;8.252;2023-02-18T01:20:48;19.50;52.50
45843;DHT22;31563;51.744;8.252;2023-02-18T01:23:17;19.50;52.40
45843;DHT22;31563;51.744;8.252;2023-02-18T01:25:45;19.50;52.40
45843;DHT22;31563;51.744;8.252;2023-02-18T01:28:15;19.50;52.40
45843;DHT22;31563;51.744;8.252;2023-02-18T01:30:44;19.50;52.60
45843;DHT22;31563;51.744;8.252;2023-02-18T01:33:12;19.50;52.50
45843;DHT22;31563;51.744;8.252;2023-02-18T01:35:40;19.50;52.50
45843;DHT22;31563;51.744;8.252;2023-02-18T01:38:09;19.50;52.40
45843;DHT22;31563;51.744;8.252;2023-02-18T01:40:45;19.50;52.50
45843;DHT22;31563;51.744;8.252;2023-02-18T01:43:15;19.50;52.40
45843;DHT22;31563;51.744;8.252;2023-02-18T01:46:05;19.60;52.40
45843;DHT22;31563;51.744;8.252;2023-02-18T01:48:37;19.60;52.40
45843;DHT22;31563;51.744;8.252;2023-02-18T01:51:09;19.50;52.30
45843;DHT22;31563;51.744;8.252;2023-02-18T01:53:44;19.60;52.40
45843;DHT22;31563;51.744;8.252;2023-02-18T01:56:17;19.60;52.30
45843;DHT22;31563;51.744;8.252;2023-02-18T01:58:48;19.50;52.20
45843;DHT22;31563;51.744;8.252;2023-02-18T02:01:17;19.60;52.30
45843;DHT22;31563;51.744;8.252;2023-02-18T02:03:45;19.50;52.20
45843;DHT22;31563;51.744;8.252;2023-02-18T02:06:15;19.50;52.20
45843;DHT22;31563;51.744;8.252;2023-02-18T02:08:45;19.50;52.20
45843;DHT22;31563;51.744;8.252;2023-02-18T02:11:22;19.50;52.20
45843;DHT22;31563;51.744;8.252;2023-02-18T02:14:15;19.40;52.20
45843;DHT22;31563;51.744;8.252;2023-02-18T02:16:50;19.50;52.30
45843;DHT22;31563;51.744;8.252;2023-02-18T02:22:50;19.50;52.30
45843;DHT22;31563;51.744;8.252;2023-02-18T02:25:41;19.50;52.30
45843;DHT22;31563;51.744;8.252;2023-02-18T02:28:36;19.50;52.30
45843;DHT22;31563;51.744;8.252;2023-02-18T02:31:33;19.50;52.30
45843;DHT22;31563;51.744;8.252;2023-02-18T02:34:23;19.50;52.30
45843;DHT22;31563;51.744;8.252;2023-02-18T02:37:01;19.40;52.20
45843;DHT22;31563;51.744;8.252;2023-02-18T02:39:38;19.50;52.10
45843;DHT22;31563;51.744;8.252;2023-02-18T02:42:15;19.50;52.20
45843;DHT22;31563;51.744;8.252;2023-02-18T02:44:51;19.50;52.10
45843;DHT22;31563;51.744;8.252;2023-02-18T02:47:27;19.50;52.10
45843;DHT22;31563;51.744;8.252;2023-02-18T02:50:01;19.50;52.10
45843;DHT22;31563;51.744;8.252;2023-02-18T02:52:32;19.50;52.10
45843;DHT22;31563;51.744;8.252;2023-02-18T02:55:05;19.40;52.20
45843;DHT22;31563;51.744;8.252;2023-02-18T02:57:49;19.40;52.20
45843;DHT22;31563;51.744;8.252;2023-02-18T03:00:20;19.40;52.20
45843;DHT22;31563;51.744;8.252;2023-02-18T03:03:11;19.40;52.10
45843;DHT22;31563;51.744;8.252;2023-02-18T03:05:52;19.40;52.20
45843;DHT22;31563;51.744;8.252;2023-02-18T03:08:29;19.30;52.10
45843;DHT22;31563;51.744;8.252;2023-02-18T03:11:04;19.30;52.20
45843;DHT22;31563;51.744;8.252;2023-02-18T03:13:46;19.30;52.30
45843;DHT22;31563;51.744;8.252;2023-02-18T03:16:25;19.30;52.30
45843;DHT22;31563;51.744;8.252;2023-02-18T03:19:00;19.30;52.30
45843;DHT22;31563;51.744;8.252;2023-02-18T03:21:33;19.40;52.30
45843;DHT22;31563;51.744;8.252;2023-02-18T03:24:07;19.40;52.20
45843;DHT22;31563;51.744;8.252;2023-02-18T03:26:41;19.40;52.30
45843;DHT22;31563;51.744;8.252;2023-02-18T03:29:11;19.40;52.20
45843;DHT22;31563;51.744;8.252;2023-02-18T03:31:42;19.40;52.20
45843;DHT22;31563;51.744;8.252;2023-02-18T03:34:15;19.40;52.20
45843;DHT22;31563;51.744;8.252;2023-02-18T03:36:45;19.40;52.20
45843;DHT22;31563;51.744;8.252;2023-02-18T03:39:16;19.30;52.20
45843;DHT22;31563;51.744;8.252;2023-02-18T03:41:45;19.30;52.20
45843;DHT22;31563;51.744;8.252;2023-02-18T03:44:13;19.30;52.30
45843;DHT22;31563;51.744;8.252;2023-02-18T03:46:43;19.30;52.30
45843;DHT22;31563;51.744;8.252;2023-02-18T03:49:12;19.30;52.20
45843;DHT22;31563;51.744;8.252;2023-02-18T03:51:40;19.30;52.30
45843;DHT22;31563;51.744;8.252;2023-02-18T03:54:10;19.30;52.40
45843;DHT22;31563;51.744;8.252;2023-02-18T03:56:40;19.30;52.50
45843;DHT22;31563;51.744;8.252;2023-02-18T03:59:08;19.30;52.40
45843;DHT22;31563;51.744;8.252;2023-02-18T04:01:36;19.30;52.40
45843;DHT22;31563;51.744;8.252;2023-02-18T04:04:05;19.30;52.50
45843;DHT22;31563;51.744;8.252;2023-02-18T04:06:33;19.30;52.50
45843;DHT22;31563;51.744;8.252;2023-02-18T04:09:01;19.30;52.50
45843;DHT22;31563;51.744;8.252;2023-02-18T04:11:37;19.30;52.40
45843;DHT22;31563;51.744;8.252;2023-02-18T04:14:06;19.30;52.40
45843;DHT22;31563;51.744;8.252;2023-02-18T04:16:34;19.30;52.30
45843;DHT22;31563;51.744;8.252;2023-02-18T04:19:02;19.30;52.40
45843;DHT22;31563;51.744;8.252;2023-02-18T04:21:30;19.30;52.40
45843;DHT22;31563;51.744;8.252;2023-02-18T04:23:59;19.20;52.40
45843;DHT22;31563;51.744;8.252;2023-02-18T04:26:27;19.30;52.50
45843;DHT22;31563;51.744;8.252;2023-02-18T04:28:56;19.30;52.50
45843;DHT22;31563;51.744;8.252;2023-02-18T04:31:25;19.20;52.50
45843;DHT22;31563;51.744;8.252;2023-02-18T04:33:53;19.20;52.50
45843;DHT22;31563;51.744;8.252;2023-02-18T04:36:21;19.20;52.50
45843;DHT22;31563;51.744;8.252;2023-02-18T04:38:49;19.20;52.50
45843;DHT22;31563;51.744;8.252;2023-02-18T04:41:17;19.20;52.70
45843;DHT22;31563;51.744;8.252;2023-02-18T04:43:45;19.20;52.70
45843;DHT22;31563;51.744;8.252;2023-02-18T04:46:15;19.20;53.20
45843;DHT22;31563;51.744;8.252;2023-02-18T04:48:43;19.20;52.70
45843;DHT22;31563;51.744;8.252;2023-02-18T04:51:11;19.30;52.70
45843;DHT22;31563;51.744;8.252;2023-02-18T04:53:39;19.40;52.50
45843;DHT22;31563;51.744;8.252;2023-02-18T04:56:07;19.40;52.60
45843;DHT22;31563;51.744;8.252;2023-02-18T04:58:36;19.40;52.40
45843;DHT22;31563;51.744;8.252;2023-02-18T05:01:04;19.50;52.40
45843;DHT22;31563;51.744;8.252;2023-02-18T05:03:34;19.50;52.20
45843;DHT22;31563;51.744;8.252;2023-02-18T05:06:02;19.60;52.30
45843;DHT22;31563;51.744;8.252;2023-02-18T05:08:30;19.60;52.10
45843;DHT22;31563;51.744;8.252;2023-02-18T05:10:58;19.60;52.10
45843;DHT22;31563;51.744;8.252;2023-02-18T05:13:27;19.60;52.00
45843;DHT22;31563;51.744;8.252;2023-02-18T05:15:55;19.60;52.00
45843;DHT22;31563;51.744;8.252;2023-02-18T05:18:23;19.70;51.90
45843;DHT22;31563;51.744;8.252;2023-02-18T05:20:52;19.70;51.80
45843;DHT22;31563;51.744;8.252;2023-02-18T05:23:20;19.70;51.80
45843;DHT22;31563;51.744;8.252;2023-02-18T05:25:49;19.70;51.70
45843;DHT22;31563;51.744;8.252;2023-02-18T05:28:17;19.70;51.70
45843;DHT22;31563;51.744;8.252;2023-02-18T05:30:45;19.80;51.60
45843;DHT22;31563;51.744;8.252;2023-02-18T05:33:13;19.80;51.70
45843;DHT22;31563;51.744;8.252;2023-02-18T05:35:41;19.80;51.70
45843;DHT22;31563;51.744;8.252;2023-02-18T05:38:10;19.80;51.60
45843;DHT22;31563;51.744;8.252;2023-02-18T05:40:38;19.80;51.50
45843;DHT22;31563;51.744;8.252;2023-02-18T05:43:07;19.80;51.40
45843;DHT22;31563;51.744;8.252;2023-02-18T05:45:35;19.80;51.60
45843;DHT22;31563;51.744;8.252;2023-02-18T05:48:03;19.80;51.40
45843;DHT22;31563;51.744;8.252;2023-02-18T05:50:31;19.80;51.50
45843;DHT22;31563;51.744;8.252;2023-02-18T05:52:59;19.90;51.50
45843;DHT22;31563;51.744;8.252;2023-02-18T05:55:29;19.80;51.50
45843;DHT22;31563;51.744;8.252;2023-02-18T05:57:57;19.90;51.40
45843;DHT22;31563;51.744;8.252;2023-02-18T06:00:25;19.90;51.50
45843;DHT22;31563;51.744;8.252;2023-02-18T06:02:55;19.90;51.50
45843;DHT22;31563;51.744;8.252;2023-02-18T06:05:23;19.90;51.60
45843;DHT22;31563;51.744;8.252;2023-02-18T06:07:51;19.90;51.40
45843;DHT22;31563;51.744;8.252;2023-02-18T06:10:22;19.90;51.30
45843;DHT22;31563;51.744;8.252;2023-02-18T06:12:51;19.90;51.30
45843;DHT22;31563;51.744;8.252;2023-02-18T06:15:20;19.90;51.30
45843;DHT22;31563;51.744;8.252;2023-02-18T06:17:48;19.90;51.30
45843;DHT22;31563;51.744;8.252;2023-02-18T06:20:16;20.00;51.40
45843;DHT22;31563;51.744;8.252;2023-02-18T06:22:44;20.00;51.40
45843;DHT22;31563;51.744;8.252;2023-02-18T06:25:12;19.90;51.30
45843;DHT22;31563;51.744;8.252;2023-02-18T06:27:40;20.00;51.30
45843;DHT22;31563;51.744;8.252;2023-02-18T06:30:10;20.00;51.40
45843;DHT22;31563;51.744;8.252;2023-02-18T06:32:38;20.00;51.20
45843;DHT22;31563;51.744;8.252;2023-02-18T06:35:07;20.00;51.20
45843;DHT22;31563;51.744;8.252;2023-02-18T06:37:35;20.00;51.30
45843;DHT22;31563;51.744;8.252;2023-02-18T06:40:04;20.00;51.30
45843;DHT22;31563;51.744;8.252;2023-02-18T06:42:33;20.00;51.20
45843;DHT22;31563;51.744;8.252;2023-02-18T06:45:01;20.00;51.20
45843;DHT22;31563;51.744;8.252;2023-02-18T06:47:30;20.00;51.20
45843;DHT22;31563;51.744;8.252;2023-02-18T06:49:58;20.00;51.10
45843;DHT22;31563;51.744;8.252;2023-02-18T06:52:26;20.10;51.30
45843;DHT22;31563;51.744;8.252;2023-02-18T06:54:56;20.00;51.70
45843;DHT22;31563;51.744;8.252;2023-02-18T06:57:24;20.00;51.90
45843;DHT22;31563;51.744;8.252;2023-02-18T06:59:52;19.90;52.60
45843;DHT22;31563;51.744;8.252;2023-02-18T07:02:20;19.90;52.70
45843;DHT22;31563;51.744;8.252;2023-02-18T07:04:50;19.90;52.70
45843;DHT22;31563;51.744;8.252;2023-02-18T07:07:18;19.80;53.10
45843;DHT22;31563;51.744;8.252;2023-02-18T07:09:46;19.90;53.30
45843;DHT22;31563;51.744;8.252;2023-02-18T07:12:14;19.90;53.60
45843;DHT22;31563;51.744;8.252;2023-02-18T07:14:42;19.90;53.50
45843;DHT22;31563;51.744;8.252;2023-02-18T07:17:10;20.00;53.50
45843;DHT22;31563;51.744;8.252;2023-02-18T07:19:38;20.00;53.40
45843;DHT22;31563;51.744;8.252;2023-02-18T07:22:08;20.00;53.40
45843;DHT22;31563;51.744;8.252;2023-02-18T07:24:36;20.00;53.30
45843;DHT22;31563;51.744;8.252;2023-02-18T07:27:04;20.00;53.90
45843;DHT22;31563;51.744;8.252;2023-02-18T07:29:32;20.00;53.80
45843;DHT22;31563;51.744;8.252;2023-02-18T07:32:01;20.00;54.00
45843;DHT22;31563;51.744;8.252;2023-02-18T07:34:29;20.10;54.20
45843;DHT22;31563;51.744;8.252;2023-02-18T07:36:57;20.10;54.10
45843;DHT22;31563;51.744;8.252;2023-02-18T07:39:26;20.10;54.00
45843;DHT22;31563;51.744;8.252;2023-02-18T07:41:54;20.10;54.30
45843;DHT22;31563;51.744;8.252;2023-02-18T07:44:22;20.10;54.00
45843;DHT22;31563;51.744;8.252;2023-02-18T07:46:53;20.10;54.10
45843;DHT22;31563;51.744;8.252;2023-02-18T07:49:21;20.10;54.00
45843;DHT22;31563;51.744;8.252;2023-02-18T07:51:49;20.10;54.00
45843;DHT22;31563;51.744;8.252;2023-02-18T07:54:17;20.20;54.00
45843;DHT22;31563;51.744;8.252;2023-02-18T07:56:47;20.10;53.80
45843;DHT22;31563;51.744;8.252;2023-02-18T07:59:15;20.10;53.80
45843;DHT22;31563;51.744;8.252;2023-02-18T08:01:44;20.20;53.80
45843;DHT22;31563;51.744;8.252;2023-02-18T08:04:12;20.20;53.60
45843;DHT22;31563;51.744;8.252;2023-02-18T08:06:43;20.20;53.70
45843;DHT22;31563;51.744;8.252;2023-02-18T08:09:13;20.20;53.70
45843;DHT22;31563;51.744;8.252;2023-02-18T08:11:41;20.20;53.70
45843;DHT22;31563;51.744;8.252;2023-02-18T08:14:11;20.20;53.60
45843;DHT22;31563;51.744;8.252;2023-02-18T08:16:39;20.20;53.60
45843;DHT22;31563;51.744;8.252;2023-02-18T08:19:08;20.20;53.50
45843;DHT22;31563;51.744;8.252;2023-02-18T08:21:36;20.20;53.50
45843;DHT22;31563;51.744;8.252;2023-02-18T08:24:05;20.20;53.40
45843;DHT22;31563;51.744;8.252;2023-02-18T08:26:34;20.20;53.40
45843;DHT22;31563;51.744;8.252;2023-02-18T08:29:02;20.20;53.50
45843;DHT22;31563;51.744;8.252;2023-02-18T08:31:32;20.30;53.40
45843;DHT22;31563;51.744;8.252;2023-02-18T08:34:00;20.30;53.20
45843;DHT22;31563;51.744;8.252;2023-02-18T08:36:29;20.30;53.30
45843;DHT22;31563;51.744;8.252;2023-02-18T08:38:58;20.30;53.20
45843;DHT22;31563;51.744;8.252;2023-02-18T08:41:26;20.30;53.10
45843;DHT22;31563;51.744;8.252;2023-02-18T08:43:55;20.30;53.10
45843;DHT22;31563;51.744;8.252;2023-02-18T08:46:23;20.30;53.70
45843;DHT22;31563;51.744;8.252;2023-02-18T08:49:03;20.30;53.10
45843;DHT22;31563;51.744;8.252;2023-02-18T08:51:32;20.30;53.00
45843;DHT22;31563;51.744;8.252;2023-02-18T08:54:00;20.30;53.10
45843;DHT22;31563;51.744;8.252;2023-02-18T08:56:28;20.30;52.90
45843;DHT22;31563;51.744;8.252;2023-02-18T08:58:57;20.30;52.90
45843;DHT22;31563;51.744;8.252;2023-02-18T09:01:26;20.30;52.80
45843;DHT22;31563;51.744;8.252;2023-02-18T09:03:54;20.30;52.90
45843;DHT22;31563;51.744;8.252;2023-02-18T09:06:24;20.40;52.90
45843;DHT22;31563;51.744;8.252;2023-02-18T09:08:52;20.30;52.40
45843;DHT22;31563;51.744;8.252;2023-02-18T09:11:20;20.30;52.80
45843;DHT22;31563;51.744;8.252;2023-02-18T09:13:48;20.40;52.80
45843;DHT22;31563;51.744;8.252;2023-02-18T09:16:17;20.40;52.80
45843;DHT22;31563;51.744;8.252;2023-02-18T09:18:46;20.50;52.70
45843;DHT22;31563;51.744;8.252;2023-02-18T09:21:16;20.50;52.60
45843;DHT22;31563;51.744;8.252;2023-02-18T09:23:48;20.50;52.50
45843;DHT22;31563;51.744;8.252;2023-02-18T09:26:18;20.50;52.40
45843;DHT22;31563;51.744;8.252;2023-02-18T09:28:50;20.50;52.60
45843;DHT22;31563;51.744;8.252;2023-02-18T09:31:20;20.60;52.30
45843;DHT22;31563;51.744;8.252;2023-02-18T09:33:50;20.60;52.20
45843;DHT22;31563;51.744;8.252;2023-02-18T09:36:19;20.60;52.10
45843;DHT22;31563;51.744;8.252;2023-02-18T09:38:49;20.60;52.20
45843;DHT22;31563;51.744;8.252;2023-02-18T09:41:26;20.60;52.00
45843;DHT22;31563;51.744;8.252;2023-02-18T09:43:58;20.60;52.00
45843;DHT22;31563;51.744;8.252;2023-02-18T09:46:30;20.60;51.90
45843;DHT22;31563;51.744;8.252;2023-02-18T09:49:01;20.60;51.90
45843;DHT22;31563;51.744;8.252;2023-02-18T09:51:30;20.60;51.80
45843;DHT22;31563;51.744;8.252;2023-02-18T09:54:00;20.60;51.80
45843;DHT22;31563;51.744;8.252;2023-02-18T09:56:31;20.60;51.70
45843;DHT22;31563;51.744;8.252;2023-02-18T09:59:04;20.60;51.70
45843;DHT22;31563;51.744;8.252;2023-02-18T10:01:36;20.60;51.70
45843;DHT22;31563;51.744;8.252;2023-02-18T10:04:12;20.50;51.60
45843;DHT22;31563;51.744;8.252;2023-02-18T10:06:42;20.60;51.80
45843;DHT22;31563;51.744;8.252;2023-02-18T10:09:18;20.60;51.60
45843;DHT22;31563;51.744;8.252;2023-02-18T10:11:49;20.60;51.70
45843;DHT22;31563;51.744;8.252;2023-02-18T10:14:18;20.60;51.60
45843;DHT22;31563;51.744;8.252;2023-02-18T10:16:48;20.70;51.60
45843;DHT22;31563;51.744;8.252;2023-02-18T10:19:23;20.70;51.50
45843;DHT22;31563;51.744;8.252;2023-02-18T10:21:54;20.70;51.30
45843;DHT22;31563;51.744;8.252;2023-02-18T10:24:29;20.70;51.20
45843;DHT22;31563;51.744;8.252;2023-02-18T10:26:59;20.60;51.10
45843;DHT22;31563;51.744;8.252;2023-02-18T10:29:29;20.60;51.40
45843;DHT22;31563;51.744;8.252;2023-02-18T10:32:04;20.70;51.20
45843;DHT22;31563;51.744;8.252;2023-02-18T10:34:39;20.70;51.10
45843;DHT22;31563;51.744;8.252;2023-02-18T10:37:29;20.60;51.10
45843;DHT22;31563;51.744;8.252;2023-02-18T10:40:10;20.70;51.10
45843;DHT22;31563;51.744;8.252;2023-02-18T10:42:49;20.60;51.00
45843;DHT22;31563;51.744;8.252;2023-02-18T10:45:29;20.80;51.10
45843;DHT22;31563;51.744;8.252;2023-02-18T10:48:10;20.80;51.60
45843;DHT22;31563;51.744;8.252;2023-02-18T10:50:43;20.90;50.90
45843;DHT22;31563;51.744;8.252;2023-02-18T10:53:15;21.00;50.90
45843;DHT22;31563;51.744;8.252;2023-02-18T10:55:47;21.00;50.60
45843;DHT22;31563;51.744;8.252;2023-02-18T10:58:29;21.00;50.30
45843;DHT22;31563;51.744;8.252;2023-02-18T11:01:00;21.10;51.00
45843;DHT22;31563;51.744;8.252;2023-02-18T11:03:40;21.00;50.00
45843;DHT22;31563;51.744;8.252;2023-02-18T11:06:18;21.00;50.10
45843;DHT22;31563;51.744;8.252;2023-02-18T11:08:47;21.00;50.10
45843;DHT22;31563;51.744;8.252;2023-02-18T11:11:22;20.90;50.00
45843;DHT22;31563;51.744;8.252;2023-02-18T11:13:52;20.90;50.00
45843;DHT22;31563;51.744;8.252;2023-02-18T11:16:21;21.00;50.20
45843;DHT22;31563;51.744;8.252;2023-02-18T11:18:50;21.10;50.40
45843;DHT22;31563;51.744;8.252;2023-02-18T11:21:23;21.10;49.80
45843;DHT22;31563;51.744;8.252;2023-02-18T11:23:54;21.20;49.80
45843;DHT22;31563;51.744;8.252;2023-02-18T11:26:28;21.20;50.00
45843;DHT22;31563;51.744;8.252;2023-02-18T11:29:00;21.30;50.00
45843;DHT22;31563;51.744;8.252;2023-02-18T11:31:39;21.30;49.60
45843;DHT22;31563;51.744;8.252;2023-02-18T11:34:15;21.20;49.80
45843;DHT22;31563;51.744;8.252;2023-02-18T11:36:44;21.30;49.80
45843;DHT22;31563;51.744;8.252;2023-02-18T11:39:18;21.20;49.80
45843;DHT22;31563;51.744;8.252;2023-02-18T11:41:53;21.20;49.70
45843;DHT22;31563;51.744;8.252;2023-02-18T11:44:27;21.20;49.70
45843;DHT22;31563;51.744;8.252;2023-02-18T11:46:59;21.20;49.80
45843;DHT22;31563;51.744;8.252;2023-02-18T11:49:29;21.20;49.80
45843;DHT22;31563;51.744;8.252;2023-02-18T11:52:05;21.30;49.70
45843;DHT22;31563;51.744;8.252;2023-02-18T11:54:41;21.30;49.70
45843;DHT22;31563;51.744;8.252;2023-02-18T11:57:12;21.30;49.50
45843;DHT22;31563;51.744;8.252;2023-02-18T11:59:41;21.40;49.60
45843;DHT22;31563;51.744;8.252;2023-02-18T12:02:25;21.30;49.50
45843;DHT22;31563;51.744;8.252;2023-02-18T12:04:59;21.30;49.60
45843;DHT22;31563;51.744;8.252;2023-02-18T12:07:41;21.30;49.70
45843;DHT22;31563;51.744;8.252;2023-02-18T12:10:13;21.30;49.50
45843;DHT22;31563;51.744;8.252;2023-02-18T12:12:47;21.30;49.60
45843;DHT22;31563;51.744;8.252;2023-02-18T12:15:19;21.40;49.50
45843;DHT22;31563;51.744;8.252;2023-02-18T12:18:12;21.30;49.40
45843;DHT22;31563;51.744;8.252;2023-02-18T12:20:53;21.30;49.60
45843;DHT22;31563;51.744;8.252;2023-02-18T12:23:27;21.30;49.60
45843;DHT22;31563;51.744;8.252;2023-02-18T12:26:18;21.40;49.60
45843;DHT22;31563;51.744;8.252;2023-02-18T12:28:58;21.30;49.40
45843;DHT22;31563;51.744;8.252;2023-02-18T12:31:51;21.30;49.50
45843;DHT22;31563;51.744;8.252;2023-02-18T12:37:39;21.30;49.40
45843;DHT22;31563;51.744;8.252;2023-02-18T12:40:33;21.20;49.40
45843;DHT22;31563;51.744;8.252;2023-02-18T12:43:13;21.30;49.50
45843;DHT22;31563;51.744;8.252;2023-02-18T12:45:57;21.20;49.40
45843;DHT22;31563;51.744;8.252;2023-02-18T12:48:41;21.20;49.40
45843;DHT22;31563;51.744;8.252;2023-02-18T12:51:23;21.20;49.50
45843;DHT22;31563;51.744;8.252;2023-02-18T12:54:06;21.30;49.70
45843;DHT22;31563;51.744;8.252;2023-02-18T12:56:58;21.30;49.50
45843;DHT22;31563;51.744;8.252;2023-02-18T12:59:49;21.30;49.40
45843;DHT22;31563;51.744;8.252;2023-02-18T13:05:17;21.30;50.00
45843;DHT22;31563;51.744;8.252;2023-02-18T13:08:05;21.40;50.20
45843;DHT22;31563;51.744;8.252;2023-02-18T13:10:46;21.50;50.50
45843;DHT22;31563;51.744;8.252;2023-02-18T13:13:19;21.60;50.60
45843;DHT22;31563;51.744;8.252;2023-02-18T13:15:50;21.60;50.50
45843;DHT22;31563;51.744;8.252;2023-02-18T13:18:25;21.60;50.40
45843;DHT22;31563;51.744;8.252;2023-02-18T13:20:56;21.60;50.50
45843;DHT22;31563;51.744;8.252;2023-02-18T13:23:29;21.60;50.60
45843;DHT22;31563;51.744;8.252;2023-02-18T13:26:00;21.50;50.70
45843;DHT22;31563;51.744;8.252;2023-02-18T13:28:33;21.50;50.80
45843;DHT22;31563;51.744;8.252;2023-02-18T13:31:16;21.60;51.20
45843;DHT22;31563;51.744;8.252;2023-02-18T13:33:52;21.60;50.90
45843;DHT22;31563;51.744;8.252;2023-02-18T13:36:37;21.60;50.90
45843;DHT22;31563;51.744;8.252;2023-02-18T13:39:08;21.60;50.90
45843;DHT22;31563;51.744;8.252;2023-02-18T13:41:39;21.60;51.00
45843;DHT22;31563;51.744;8.252;2023-02-18T13:44:15;21.60;51.00
45843;DHT22;31563;51.744;8.252;2023-02-18T13:46:58;21.60;50.90
45843;DHT22;31563;51.744;8.252;2023-02-18T13:49:32;21.50;50.80
45843;DHT22;31563;51.744;8.252;2023-02-18T13:52:01;21.50;51.00
45843;DHT22;31563;51.744;8.252;2023-02-18T13:54:32;21.60;51.10
45843;DHT22;31563;51.744;8.252;2023-02-18T13:57:04;21.60;50.90
45843;DHT22;31563;51.744;8.252;2023-02-18T13:59:36;21.50;50.90
45843;DHT22;31563;51.744;8.252;2023-02-18T14:04:53;21.50;51.10
45843;DHT22;31563;51.744;8.252;2023-02-18T14:07:31;21.60;51.30
45843;DHT22;31563;51.744;8.252;2023-02-18T14:10:22;21.60;51.30
45843;DHT22;31563;51.744;8.252;2023-02-18T14:13:22;21.60;51.30
45843;DHT22;31563;51.744;8.252;2023-02-18T14:15:56;21.60;51.30
45843;DHT22;31563;51.744;8.252;2023-02-18T14:21:33;21.60;51.20
45843;DHT22;31563;51.744;8.252;2023-02-18T14:24:04;21.60;51.40
45843;DHT22;31563;51.744;8.252;2023-02-18T14:26:36;21.60;51.60
45843;DHT22;31563;51.744;8.252;2023-02-18T14:29:11;21.60;51.90
45843;DHT22;31563;51.744;8.252;2023-02-18T14:31:48;21.60;52.20
45843;DHT22;31563;51.744;8.252;2023-02-18T14:34:33;21.70;52.30
45843;DHT22;31563;51.744;8.252;2023-02-18T14:40:25;21.60;52.30
45843;DHT22;31563;51.744;8.252;2023-02-18T14:43:02;21.60;52.40
45843;DHT22;31563;51.744;8.252;2023-02-18T14:45:53;21.60;52.60
45843;DHT22;31563;51.744;8.252;2023-02-18T14:48:43;21.60;52.80
45843;DHT22;31563;51.744;8.252;2023-02-18T14:51:20;21.60;52.80
45843;DHT22;31563;51.744;8.252;2023-02-18T14:53:50;21.60;52.90
45843;DHT22;31563;51.744;8.252;2023-02-18T14:56:20;21.50;52.70
45843;DHT22;31563;51.744;8.252;2023-02-18T14:58:51;21.50;52.70
45843;DHT22;31563;51.744;8.252;2023-02-18T15:01:23;21.50;52.80
45843;DHT22;31563;51.744;8.252;2023-02-18T15:03:53;21.40;52.80
45843;DHT22;31563;51.744;8.252;2023-02-18T15:06:23;21.40;52.80
45843;DHT22;31563;51.744;8.252;2023-02-18T15:08:53;21.40;52.80
45843;DHT22;31563;51.744;8.252;2023-02-18T15:11:24;21.40;52.90
45843;DHT22;31563;51.744;8.252;2023-02-18T15:13:53;21.40;52.90
45843;DHT22;31563;51.744;8.252;2023-02-18T15:16:30;21.40;52.90
45843;DHT22;31563;51.744;8.252;2023-02-18T15:19:02;21.40;52.90
45843;DHT22;31563;51.744;8.252;2023-02-18T15:21:32;21.40;52.90
45843;DHT22;31563;51.744;8.252;2023-02-18T15:24:05;21.40;52.90
45843;DHT22;31563;51.744;8.252;2023-02-18T15:26:35;21.40;53.00
45843;DHT22;31563;51.744;8.252;2023-02-18T15:29:05;21.40;53.10
45843;DHT22;31563;51.744;8.252;2023-02-18T15:31:37;21.40;52.30
45843;DHT22;31563;51.744;8.252;2023-02-18T15:34:31;21.20;51.90
45843;DHT22;31563;51.744;8.252;2023-02-18T15:37:01;21.20;52.40
45843;DHT22;31563;51.744;8.252;2023-02-18T15:39:31;21.20;52.20
45843;DHT22;31563;51.744;8.252;2023-02-18T15:42:01;21.20;52.30
45843;DHT22;31563;51.744;8.252;2023-02-18T15:44:35;21.20;52.30
45843;DHT22;31563;51.744;8.252;2023-02-18T15:47:06;21.20;52.20
45843;DHT22;31563;51.744;8.252;2023-02-18T15:49:37;21.20;52.20
45843;DHT22;31563;51.744;8.252;2023-02-18T15:52:06;21.20;52.20
45843;DHT22;31563;51.744;8.252;2023-02-18T15:54:38;21.20;52.20
45843;DHT22;31563;51.744;8.252;2023-02-18T15:57:12;21.10;52.10
45843;DHT22;31563;51.744;8.252;2023-02-18T15:59:46;21.10;52.10
45843;DHT22;31563;51.744;8.252;2023-02-18T16:02:23;21.10;52.10
45843;DHT22;31563;51.744;8.252;2023-02-18T16:04:53;21.10;52.00
45843;DHT22;31563;51.744;8.252;2023-02-18T16:07:25;21.10;52.00
45843;DHT22;31563;51.744;8.252;2023-02-18T16:10:18;21.10;52.10
45843;DHT22;31563;51.744;8.252;2023-02-18T16:12:49;21.00;51.90
45843;DHT22;31563;51.744;8.252;2023-02-18T16:15:23;21.00;52.10
45843;DHT22;31563;51.744;8.252;2023-02-18T16:17:52;21.00;52.10
45843;DHT22;31563;51.744;8.252;2023-02-18T16:20:29;21.00;52.00